Time;durP1;ratioP1;P1;durP2;ratioP2;P2;SDS_P1;SDS_P2;PMS_P1;PMS_P2;Temp;Humidity;BMP_temperature;BMP_pressure;BME280_temperature;BME280_humidity;BME280_pressure;Samples;Min_cycle;Max_cycle;Signal;HPM_P1;HPM_P2
2023/12/26 00:01:47;;;;;;;3.53;1.70;;;14.00;55.60;;;;;;5005382;28;20421;-59
2023/12/26 00:04:13;;;;;;;1.60;1.30;;;14.10;55.20;;;;;;5004001;28;20469;-58
2023/12/26 00:06:40;;;;;;;3.00;1.43;;;14.20;54.90;;;;;;5004300;28;20515;-58
2023/12/26 00:09:05;;;;;;;5.70;2.90;;;14.30;55.10;;;;;;5005125;28;20429;-59
2023/12/26 00:11:31;;;;;;;2.43;1.30;;;14.10;54.90;;;;;;5004466;28;20492;-59
2023/12/26 00:13:56;;;;;;;3.33;1.90;;;14.00;54.90;;;;;;5001947;28;20558;-59
2023/12/26 00:16:23;;;;;;;2.43;1.40;;;14.00;55.00;;;;;;5002102;28;20210;-59
2023/12/26 00:18:49;;;;;;;1.43;1.33;;;14.00;55.20;;;;;;5005522;28;20197;-60
2023/12/26 00:21:14;;;;;;;1.47;1.17;;;14.00;54.90;;;;;;5003922;28;20849;-59
2023/12/26 00:23:40;;;;;;;3.33;1.40;;;13.90;55.30;;;;;;5005396;28;20599;-59
2023/12/26 00:26:05;;;;;;;5.23;1.77;;;14.00;55.20;;;;;;5003979;28;20237;-59
2023/12/26 00:28:31;;;;;;;3.73;1.83;;;13.90;55.20;;;;;;5004293;28;20206;-59
2023/12/26 00:30:57;;;;;;;2.30;2.10;;;14.00;55.20;;;;;;5005454;28;20189;-59
2023/12/26 00:33:23;;;;;;;2.67;1.60;;;14.00;55.30;;;;;;5003712;28;20256;-58
2023/12/26 00:35:48;;;;;;;2.07;1.37;;;14.20;55.00;;;;;;5007011;28;20194;-59
2023/12/26 00:38:14;;;;;;;2.63;1.60;;;14.20;54.90;;;;;;5007491;28;20791;-58
2023/12/26 00:40:41;;;;;;;3.30;1.60;;;14.30;54.70;;;;;;5009289;28;20186;-58
2023/12/26 00:43:10;;;;;;;2.20;1.30;;;14.30;54.70;;;;;;5008286;28;20218;-59
2023/12/26 00:45:35;;;;;;;2.90;1.70;;;14.00;55.30;;;;;;5007159;28;20448;-59
2023/12/26 00:48:01;;;;;;;2.60;1.30;;;14.10;55.40;;;;;;5008850;28;20790;-59
2023/12/26 00:50:27;;;;;;;3.17;1.30;;;14.20;55.20;;;;;;5007271;28;20182;-60
2023/12/26 00:52:53;;;;;;;5.03;1.73;;;14.10;55.10;;;;;;5008655;28;20185;-58
2023/12/26 00:55:18;;;;;;;1.93;1.30;;;14.20;55.10;;;;;;5006028;28;20432;-59
2023/12/26 00:57:44;;;;;;;1.60;1.50;;;14.30;54.90;;;;;;5008965;28;20186;-58
2023/12/26 01:00:10;;;;;;;2.53;1.40;;;14.30;54.90;;;;;;5007883;28;20249;-59
2023/12/26 01:02:35;;;;;;;2.03;1.60;;;14.20;55.00;;;;;;5007975;28;20752;-59
2023/12/26 01:05:01;;;;;;;1.80;1.37;;;14.30;55.00;;;;;;5007481;28;20543;-59
2023/12/26 01:07:27;;;;;;;2.20;1.87;;;14.30;55.00;;;;;;5006111;28;20265;-59
2023/12/26 01:09:54;;;;;;;1.40;1.10;;;14.20;54.70;;;;;;5010601;28;20186;-59
2023/12/26 01:12:19;;;;;;;2.23;1.50;;;14.10;54.90;;;;;;5006737;28;20240;-59
2023/12/26 01:14:45;;;;;;;2.03;1.47;;;14.00;55.30;;;;;;5007906;28;20425;-59
2023/12/26 01:17:11;;;;;;;2.27;1.63;;;14.00;55.50;;;;;;5007426;28;20210;-59
2023/12/26 01:19:36;;;;;;;4.73;1.43;;;14.00;55.40;;;;;;5008308;28;20182;-60
2023/12/26 01:22:02;;;;;;;2.30;1.40;;;14.10;55.30;;;;;;5008159;28;20552;-58
2023/12/26 01:24:28;;;;;;;4.00;2.20;;;14.20;55.30;;;;;;5005995;28;20268;-59
2023/12/26 01:26:53;;;;;;;3.53;1.70;;;14.10;55.40;;;;;;5007180;28;20510;-59
2023/12/26 01:29:19;;;;;;;6.37;2.03;;;14.10;55.30;;;;;;5006540;28;20170;-58
2023/12/26 01:31:45;;;;;;;2.97;1.97;;;14.20;55.10;;;;;;5008167;28;20644;-59
2023/12/26 01:34:10;;;;;;;2.67;1.60;;;14.10;55.30;;;;;;5007149;28;20181;-59
2023/12/26 01:36:36;;;;;;;1.90;1.60;;;14.00;55.30;;;;;;5006105;28;20202;-59
2023/12/26 01:39:02;;;;;;;2.70;1.43;;;13.90;56.40;;;;;;5007991;28;20239;-59
2023/12/26 01:41:27;;;;;;;3.10;1.77;;;13.90;55.80;;;;;;5006278;28;20174;-58
2023/12/26 01:43:53;;;;;;;1.63;1.40;;;13.90;55.70;;;;;;5007738;28;20842;-58
2023/12/26 01:46:20;;;;;;;1.80;1.20;;;13.70;56.10;;;;;;5004685;28;20210;-59
2023/12/26 01:48:49;;;;;;;2.30;1.43;;;13.70;56.00;;;;;;5007569;28;20197;-58
2023/12/26 01:51:16;;;;;;;1.37;1.30;;;13.40;56.40;;;;;;5006254;28;20425;-59
2023/12/26 01:53:42;;;;;;;1.13;1.00;;;13.30;56.60;;;;;;5007822;28;20939;-59
2023/12/26 01:56:15;;;;;;;2.20;1.40;;;13.30;56.90;;;;;;5006220;28;20486;-58
2023/12/26 01:58:45;;;;;;;5.17;1.30;;;13.20;56.80;;;;;;5000858;28;20563;-59
2023/12/26 02:01:11;;;;;;;1.70;1.50;;;13.00;57.10;;;;;;5006435;28;20417;-59
2023/12/26 02:03:37;;;;;;;2.40;2.20;;;12.90;57.60;;;;;;5007071;28;20952;-59
2023/12/26 02:06:05;;;;;;;1.87;1.60;;;12.90;57.80;;;;;;5006765;28;20481;-58
2023/12/26 02:08:30;;;;;;;1.77;1.40;;;13.00;57.60;;;;;;5006997;28;20182;-58
2023/12/26 02:10:56;;;;;;;2.90;1.30;;;13.00;57.50;;;;;;5007318;28;20944;-58
2023/12/26 02:13:22;;;;;;;3.27;1.40;;;12.90;57.40;;;;;;5005780;28;20193;-57
2023/12/26 02:15:54;;;;;;;5.10;1.70;;;12.90;57.60;;;;;;5006588;28;20208;-57
2023/12/26 02:18:19;;;;;;;2.70;1.27;;;12.90;57.60;;;;;;5005942;28;20576;-58
2023/12/26 02:20:45;;;;;;;2.93;2.60;;;13.00;57.60;;;;;;5007290;28;20420;-58
2023/12/26 02:23:11;;;;;;;2.07;1.57;;;13.10;57.50;;;;;;5005916;28;20221;-57
2023/12/26 02:25:36;;;;;;;2.17;1.40;;;13.10;57.20;;;;;;5005805;28;20213;-61
2023/12/26 02:28:05;;;;;;;1.20;1.10;;;13.00;57.60;;;;;;5006881;28;20204;-58
2023/12/26 02:30:31;;;;;;;4.73;1.60;;;13.00;57.40;;;;;;5005740;28;20198;-59
2023/12/26 02:33:00;;;;;;;2.30;1.53;;;13.10;57.40;;;;;;5006902;28;20421;-59
2023/12/26 02:35:27;;;;;;;2.00;1.37;;;13.10;57.10;;;;;;5004531;28;20441;-61
2023/12/26 02:37:53;;;;;;;1.30;1.20;;;13.00;57.30;;;;;;5007495;28;20405;-59
2023/12/26 02:40:18;;;;;;;2.30;1.23;;;12.90;57.50;;;;;;5005637;28;20459;-62
2023/12/26 02:42:44;;;;;;;3.43;1.37;;;13.10;57.40;;;;;;5001948;28;20194;-57
2023/12/26 02:45:10;;;;;;;1.80;1.37;;;13.10;57.40;;;;;;5005128;28;20221;-58
2023/12/26 02:47:35;;;;;;;1.43;1.33;;;12.90;57.30;;;;;;5005781;28;20959;-58
2023/12/26 02:50:01;;;;;;;5.53;1.60;;;12.90;57.60;;;;;;5006745;28;20213;-61
2023/12/26 02:52:27;;;;;;;2.03;1.50;;;12.80;57.60;;;;;;5004989;28;20171;-60
2023/12/26 02:54:52;;;;;;;2.20;1.80;;;12.70;57.60;;;;;;5005947;28;20665;-60
2023/12/26 02:57:18;;;;;;;1.80;1.37;;;12.80;57.90;;;;;;5004581;28;20289;-61
2023/12/26 02:59:43;;;;;;;3.80;1.43;;;12.90;57.60;;;;;;5006705;28;20755;-57
2023/12/26 03:02:09;;;;;;;2.70;1.40;;;13.00;57.20;;;;;;5005755;28;20196;-60
2023/12/26 03:04:35;;;;;;;1.57;1.27;;;13.10;57.10;;;;;;5005344;28;20794;-61
2023/12/26 03:07:01;;;;;;;1.63;1.07;;;13.10;56.60;;;;;;5005976;28;20555;-61
2023/12/26 03:09:26;;;;;;;4.03;1.23;;;13.00;56.90;;;;;;5004818;28;20433;-61
2023/12/26 03:11:52;;;;;;;1.53;1.33;;;13.10;56.80;;;;;;5001526;28;20186;-59
2023/12/26 03:14:17;;;;;;;1.93;1.20;;;13.10;56.80;;;;;;5004646;28;20204;-60
2023/12/26 03:16:43;;;;;;;5.13;2.60;;;13.00;57.00;;;;;;5005821;28;20213;-61
2023/12/26 03:19:09;;;;;;;1.30;1.00;;;13.10;56.90;;;;;;5005449;28;20202;-60
2023/12/26 03:21:34;;;;;;;1.30;1.20;;;13.20;56.50;;;;;;5005495;28;20194;-58
2023/12/26 03:24:00;;;;;;;2.40;1.27;;;13.20;56.40;;;;;;5005983;28;20225;-59
2023/12/26 03:26:25;;;;;;;2.00;1.40;;;13.20;56.50;;;;;;5003680;28;20700;-61
2023/12/26 03:28:51;;;;;;;3.03;1.20;;;13.10;56.30;;;;;;5006245;28;20189;-62
2023/12/26 03:31:16;;;;;;;3.47;1.53;;;13.20;56.20;;;;;;5004759;28;20181;-60
2023/12/26 03:33:42;;;;;;;2.57;1.40;;;13.00;55.90;;;;;;5006342;28;20276;-61
2023/12/26 03:36:08;;;;;;;2.40;1.30;;;13.00;56.50;;;;;;5004675;28;20210;-57
2023/12/26 03:38:36;;;;;;;2.33;1.30;;;13.00;56.10;;;;;;5004779;28;20186;-57
2023/12/26 03:41:02;;;;;;;2.00;1.37;;;13.00;56.10;;;;;;5006651;28;20429;-60
2023/12/26 03:43:28;;;;;;;1.93;1.20;;;13.00;56.00;;;;;;5004247;28;20474;-61
2023/12/26 03:45:53;;;;;;;1.27;1.13;;;12.80;56.10;;;;;;5005419;28;20206;-61
2023/12/26 03:48:19;;;;;;;1.67;1.00;;;13.00;56.30;;;;;;5004123;28;20268;-61
2023/12/26 03:50:44;;;;;;;1.90;1.40;;;13.10;56.00;;;;;;5006244;28;20182;-58
2023/12/26 03:53:10;;;;;;;1.63;1.20;;;13.40;55.60;;;;;;5005041;28;20269;-58
2023/12/26 03:55:35;;;;;;;1.90;1.40;;;13.60;55.30;;;;;;5004709;28;20206;-61
2023/12/26 03:58:01;;;;;;;1.17;1.07;;;13.60;55.00;;;;;;5005610;28;20186;-62
2023/12/26 04:00:29;;;;;;;4.10;1.40;;;13.70;54.90;;;;;;5004362;28;20182;-61
2023/12/26 04:02:55;;;;;;;2.67;1.50;;;13.80;55.40;;;;;;5005844;28;20247;-60
2023/12/26 04:05:21;;;;;;;8.37;1.63;;;13.80;54.80;;;;;;5003538;28;20497;-58
2023/12/26 04:07:47;;;;;;;2.53;1.63;;;13.80;54.80;;;;;;5005676;28;20978;-59
2023/12/26 04:10:13;;;;;;;3.10;1.80;;;13.80;55.30;;;;;;5006073;28;20185;-59
2023/12/26 04:12:39;;;;;;;1.77;1.53;;;13.90;54.60;;;;;;5009479;28;20428;-60
2023/12/26 04:15:05;;;;;;;3.13;1.37;;;14.00;54.40;;;;;;5008717;28;20437;-62
2023/12/26 04:17:30;;;;;;;2.10;1.50;;;14.00;54.30;;;;;;5007935;28;20228;-58
2023/12/26 04:19:56;;;;;;;3.30;1.50;;;14.00;54.40;;;;;;5009616;28;20417;-61
2023/12/26 04:22:21;;;;;;;1.30;1.20;;;14.00;54.20;;;;;;5007964;28;20190;-61
2023/12/26 04:24:47;;;;;;;2.20;1.60;;;14.00;54.30;;;;;;5009026;28;20683;-59
2023/12/26 04:27:13;;;;;;;2.03;1.60;;;14.10;54.20;;;;;;5007636;28;20202;-57
2023/12/26 04:29:38;;;;;;;2.37;1.40;;;14.10;54.10;;;;;;5009313;28;20560;-61
2023/12/26 04:32:04;;;;;;;1.30;1.20;;;13.90;53.90;;;;;;5009403;28;20181;-60
2023/12/26 04:34:30;;;;;;;3.53;1.63;;;13.90;53.80;;;;;;5007839;28;20692;-59
2023/12/26 04:36:55;;;;;;;3.53;1.20;;;13.50;53.90;;;;;;5008383;28;20443;-59
2023/12/26 04:39:21;;;;;;;2.60;1.10;;;13.40;54.10;;;;;;5007889;28;20215;-56
2023/12/26 04:41:47;;;;;;;2.37;1.43;;;13.10;54.40;;;;;;5009999;28;20548;-61
2023/12/26 04:44:13;;;;;;;3.60;1.40;;;13.00;54.50;;;;;;5008132;28;20220;-58
2023/12/26 04:46:38;;;;;;;1.67;1.40;;;13.00;54.90;;;;;;5007939;28;20452;-59
2023/12/26 04:49:04;;;;;;;1.60;1.30;;;12.90;54.90;;;;;;5009191;28;20536;-62
2023/12/26 04:51:30;;;;;;;3.00;1.40;;;12.90;54.90;;;;;;5008492;28;20183;-56
2023/12/26 04:53:56;;;;;;;2.47;1.53;;;13.00;55.00;;;;;;5009322;28;20618;-58
2023/12/26 04:56:22;;;;;;;5.17;1.43;;;12.80;54.90;;;;;;5006677;28;20217;-59
2023/12/26 04:58:49;;;;;;;4.57;1.70;;;12.90;55.10;;;;;;5009518;28;20186;-59
2023/12/26 05:01:15;;;;;;;1.90;1.80;;;12.80;55.30;;;;;;5007729;28;20182;-60
2023/12/26 05:03:42;;;;;;;6.50;1.93;;;12.80;55.20;;;;;;5008761;28;21060;-61
2023/12/26 05:06:08;;;;;;;5.03;1.97;;;13.00;55.10;;;;;;5007217;28;21089;-58
2023/12/26 05:08:36;;;;;;;4.23;2.00;;;12.90;55.10;;;;;;5008169;28;20476;-58
2023/12/26 05:11:02;;;;;;;3.40;1.90;;;13.00;55.30;;;;;;5008938;28;20859;-58
2023/12/26 05:13:28;;;;;;;4.80;2.57;;;13.00;55.10;;;;;;5007228;28;20922;-57
2023/12/26 05:15:54;;;;;;;3.90;2.20;;;13.00;55.10;;;;;;5007926;28;20436;-59
2023/12/26 05:18:20;;;;;;;5.00;2.60;;;13.10;55.10;;;;;;5006591;28;20913;-58
2023/12/26 05:20:45;;;;;;;3.77;2.47;;;13.00;55.70;;;;;;5008162;28;20456;-59
2023/12/26 05:23:11;;;;;;;5.50;2.90;;;13.00;55.30;;;;;;5006808;28;20238;-61
2023/12/26 05:25:36;;;;;;;4.63;2.90;;;13.30;54.90;;;;;;5007329;28;20289;-61
2023/12/26 05:28:02;;;;;;;3.20;1.97;;;13.30;54.80;;;;;;5008285;28;20641;-59
2023/12/26 05:30:28;;;;;;;4.00;1.70;;;13.30;54.70;;;;;;5006880;28;20186;-59
2023/12/26 05:32:53;;;;;;;2.97;1.53;;;13.20;54.90;;;;;;5008321;28;20182;-57
2023/12/26 05:35:19;;;;;;;5.30;1.70;;;12.90;55.00;;;;;;5005851;28;20210;-61
2023/12/26 05:37:45;;;;;;;5.00;1.40;;;12.90;55.60;;;;;;5008064;28;20194;-60
2023/12/26 05:40:10;;;;;;;2.90;1.33;;;12.80;55.70;;;;;;5007166;28;20189;-61
2023/12/26 05:42:36;;;;;;;2.67;1.63;;;12.70;55.90;;;;;;5008126;28;20429;-58
2023/12/26 05:45:03;;;;;;;4.23;1.80;;;12.70;55.90;;;;;;5007449;28;20689;-58
2023/12/26 05:47:29;;;;;;;2.10;1.57;;;12.80;55.90;;;;;;5006117;28;20187;-61
2023/12/26 05:49:57;;;;;;;1.73;1.40;;;12.70;55.90;;;;;;5007965;28;20435;-59
2023/12/26 05:52:24;;;;;;;2.40;1.97;;;12.60;56.00;;;;;;5006471;28;20186;-59
2023/12/26 05:54:49;;;;;;;5.60;1.70;;;12.60;56.30;;;;;;5007154;28;20508;-61
2023/12/26 05:57:15;;;;;;;2.40;1.37;;;12.70;56.20;;;;;;5006056;28;20478;-60
2023/12/26 05:59:40;;;;;;;3.17;1.87;;;12.80;56.00;;;;;;5007811;28;20195;-59
2023/12/26 06:02:06;;;;;;;2.80;1.57;;;12.80;55.80;;;;;;5007375;28;20673;-59
2023/12/26 06:04:32;;;;;;;3.03;1.50;;;12.70;55.80;;;;;;5006003;28;20221;-61
2023/12/26 06:06:57;;;;;;;4.60;1.97;;;12.50;56.20;;;;;;5007152;28;20206;-60
2023/12/26 06:09:25;;;;;;;4.17;1.40;;;12.70;56.20;;;;;;5006061;28;20185;-58
2023/12/26 06:11:51;;;;;;;3.43;1.73;;;12.50;55.90;;;;;;5007728;28;20428;-61
2023/12/26 06:14:16;;;;;;;6.53;1.53;;;12.50;56.20;;;;;;5006154;28;20420;-59
2023/12/26 06:16:42;;;;;;;2.80;2.00;;;12.70;56.20;;;;;;5006529;28;20570;-58
2023/12/26 06:19:09;;;;;;;3.77;2.00;;;12.80;56.00;;;;;;5006933;28;20190;-61
2023/12/26 06:21:35;;;;;;;4.87;2.30;;;12.70;55.80;;;;;;5006830;28;20605;-58
2023/12/26 06:24:01;;;;;;;1.93;1.53;;;12.90;55.70;;;;;;5007320;28;20468;-57
2023/12/26 06:26:26;;;;;;;6.53;1.67;;;12.80;55.60;;;;;;5004894;28;20447;-61
2023/12/26 06:28:52;;;;;;;2.10;1.13;;;12.70;55.60;;;;;;5007319;28;20662;-59
2023/12/26 06:31:18;;;;;;;4.97;1.53;;;12.50;55.90;;;;;;5005983;28;20649;-60
2023/12/26 06:33:44;;;;;;;2.80;1.50;;;12.50;56.30;;;;;;5007041;28;20277;-61
2023/12/26 06:36:10;;;;;;;3.80;1.70;;;12.40;56.40;;;;;;5005373;28;20524;-61
2023/12/26 06:38:36;;;;;;;4.87;1.70;;;12.50;56.00;;;;;;5006406;28;20599;-59
2023/12/26 06:41:02;;;;;;;6.10;1.90;;;12.50;56.10;;;;;;5007669;28;20192;-59
2023/12/26 06:43:28;;;;;;;5.53;1.83;;;12.50;56.40;;;;;;5005461;28;20476;-58
2023/12/26 06:45:54;;;;;;;5.53;1.80;;;12.60;56.20;;;;;;5006059;28;20539;-60
2023/12/26 06:48:19;;;;;;;4.43;2.20;;;12.60;56.20;;;;;;5005413;28;20429;-61
2023/12/26 06:50:45;;;;;;;3.43;1.90;;;12.70;56.10;;;;;;5007247;28;20193;-59
2023/12/26 06:53:11;;;;;;;3.03;1.40;;;12.80;55.90;;;;;;5006058;28;20209;-58
2023/12/26 06:55:36;;;;;;;5.40;2.80;;;12.80;55.50;;;;;;5006084;28;20232;-60
2023/12/26 06:58:02;;;;;;;3.90;1.63;;;12.80;55.60;;;;;;5006745;28;20186;-61
2023/12/26 07:00:28;;;;;;;4.70;2.10;;;12.60;55.90;;;;;;5005335;28;20186;-59
2023/12/26 07:02:56;;;;;;;2.97;1.60;;;12.80;55.90;;;;;;5006748;28;20182;-59
2023/12/26 07:05:22;;;;;;;2.50;1.50;;;12.80;55.80;;;;;;5004384;28;20230;-61
2023/12/26 07:07:48;;;;;;;3.90;1.30;;;12.70;55.70;;;;;;5006523;28;20429;-57
2023/12/26 07:10:14;;;;;;;3.37;1.60;;;12.80;55.70;;;;;;5005809;28;20563;-58
2023/12/26 07:12:40;;;;;;;2.47;1.57;;;12.90;55.40;;;;;;5006405;28;20441;-61
2023/12/26 07:15:06;;;;;;;3.90;1.63;;;12.90;55.40;;;;;;5005643;28;20231;-59
2023/12/26 07:17:32;;;;;;;3.47;1.67;;;12.80;55.60;;;;;;5002153;28;20666;-60
2023/12/26 07:19:58;;;;;;;6.67;1.80;;;13.00;55.40;;;;;;5006073;28;21069;-60
2023/12/26 07:22:24;;;;;;;5.17;2.20;;;12.90;55.40;;;;;;5005086;28;20417;-60
2023/12/26 07:24:49;;;;;;;2.90;1.40;;;12.80;55.60;;;;;;5005680;28;20228;-58
2023/12/26 07:27:15;;;;;;;3.43;1.73;;;12.80;55.80;;;;;;5005342;28;20566;-61
2023/12/26 07:29:41;;;;;;;2.50;1.63;;;12.80;55.60;;;;;;5005992;28;20209;-60
2023/12/26 07:32:06;;;;;;;5.60;2.43;;;12.90;56.20;;;;;;5006101;28;20204;-60
2023/12/26 07:34:32;;;;;;;3.50;1.67;;;12.80;55.70;;;;;;5004941;28;20214;-63
2023/12/26 07:36:58;;;;;;;4.20;1.97;;;12.80;55.80;;;;;;5006121;28;20280;-59
2023/12/26 07:39:23;;;;;;;3.37;1.60;;;12.80;55.60;;;;;;5004541;28;20189;-60
2023/12/26 07:41:49;;;;;;;4.17;2.40;;;12.50;56.00;;;;;;5007111;28;20269;-58
2023/12/26 07:44:15;;;;;;;4.50;1.73;;;12.50;56.30;;;;;;5004890;28;20222;-62
2023/12/26 07:46:40;;;;;;;9.87;1.83;;;12.40;56.40;;;;;;5009703;28;20502;-59
2023/12/26 07:49:06;;;;;;;3.50;1.60;;;12.70;56.40;;;;;;5009667;28;20223;-59
2023/12/26 07:51:32;;;;;;;2.80;1.80;;;13.00;56.00;;;;;;5009263;28;20186;-58
2023/12/26 07:53:59;;;;;;;3.37;1.57;;;13.20;55.50;;;;;;5010355;28;20447;-58
2023/12/26 07:56:26;;;;;;;2.80;1.40;;;13.40;55.00;;;;;;5007951;28;20458;-60
2023/12/26 07:58:52;;;;;;;4.10;1.53;;;13.30;54.80;;;;;;5009707;28;20417;-62
2023/12/26 08:01:18;;;;;;;5.87;2.30;;;13.10;55.00;;;;;;5008855;28;20424;-61
2023/12/26 08:03:44;;;;;;;5.47;1.83;;;13.10;55.20;;;;;;5010171;28;20472;-59
2023/12/26 08:06:09;;;;;;;6.27;1.50;;;13.10;55.20;;;;;;5008579;28;20693;-60
2023/12/26 08:08:35;;;;;;;5.40;2.43;;;13.10;55.30;;;;;;5008971;28;20272;-61
2023/12/26 08:11:01;;;;;;;3.43;1.50;;;13.10;55.50;;;;;;5011123;28;20445;-61
2023/12/26 08:13:26;;;;;;;6.20;2.00;;;13.20;55.20;;;;;;5008340;28;20183;-59
2023/12/26 08:15:52;;;;;;;3.70;1.70;;;13.30;55.00;;;;;;5009139;28;20221;-60
2023/12/26 08:18:17;;;;;;;2.97;1.87;;;13.40;54.90;;;;;;5004614;28;20288;-60
2023/12/26 08:20:43;;;;;;;6.43;2.10;;;13.20;54.60;;;;;;5009863;28;20193;-59
2023/12/26 08:23:09;;;;;;;4.50;1.70;;;13.20;55.20;;;;;;5008965;28;20252;-61
2023/12/26 08:25:35;;;;;;;5.63;1.83;;;13.20;55.00;;;;;;5008132;28;20213;-59
2023/12/26 08:28:01;;;;;;;6.10;1.73;;;13.20;55.20;;;;;;5009240;28;20189;-58
2023/12/26 08:30:27;;;;;;;6.60;2.30;;;13.10;55.10;;;;;;5008152;28;20498;-61
2023/12/26 08:32:52;;;;;;;5.00;2.37;;;13.10;55.40;;;;;;5009678;28;20907;-58
2023/12/26 08:35:18;;;;;;;6.20;1.83;;;13.10;55.50;;;;;;5007516;28;20288;-62
2023/12/26 08:37:44;;;;;;;4.40;1.63;;;13.00;55.40;;;;;;5009738;28;20174;-59
2023/12/26 08:40:09;;;;;;;4.20;2.27;;;13.00;55.60;;;;;;5008570;28;20654;-60
2023/12/26 08:42:35;;;;;;;4.03;1.60;;;13.00;55.40;;;;;;5008721;28;20665;-60
2023/12/26 08:45:00;;;;;;;4.03;1.80;;;13.10;55.40;;;;;;5004891;28;20249;-59
2023/12/26 08:47:26;;;;;;;3.10;1.80;;;13.10;55.40;;;;;;5008277;28;20232;-60
2023/12/26 08:49:52;;;;;;;2.50;1.97;;;13.20;55.00;;;;;;5008998;28;20190;-59
2023/12/26 08:52:18;;;;;;;4.93;1.90;;;13.10;55.00;;;;;;5007876;28;20194;-61
2023/12/26 08:54:43;;;;;;;4.93;1.63;;;13.00;55.10;;;;;;5008629;28;20182;-60
2023/12/26 08:57:09;;;;;;;1.93;1.67;;;13.10;55.00;;;;;;5008115;28;20486;-61
2023/12/26 08:59:35;;;;;;;7.13;1.77;;;13.00;55.30;;;;;;5007964;28;20222;-59
2023/12/26 09:02:00;;;;;;;5.53;1.40;;;13.20;55.50;;;;;;5009193;28;20565;-60
2023/12/26 09:04:26;;;;;;;1.73;1.50;;;13.30;55.00;;;;;;5007130;28;20230;-60
2023/12/26 09:06:55;;;;;;;3.73;1.90;;;13.40;54.70;;;;;;5008364;28;20213;-58
2023/12/26 09:09:21;;;;;;;4.37;1.40;;;13.50;54.60;;;;;;5007080;28;20606;-59
2023/12/26 09:11:46;;;;;;;3.83;1.83;;;13.70;54.60;;;;;;5009133;28;20531;-60
2023/12/26 09:14:13;;;;;;;11.30;2.30;;;13.80;54.20;;;;;;5007738;28;20317;-59
2023/12/26 09:16:39;;;;;;;10.97;2.37;;;13.80;53.80;;;;;;5008077;28;20681;-60
2023/12/26 09:19:05;;;;;;;4.53;1.83;;;13.70;54.10;;;;;;5008179;28;20425;-61
2023/12/26 09:21:30;;;;;;;4.27;1.87;;;13.70;54.30;;;;;;5007277;28;21063;-61
2023/12/26 09:23:56;;;;;;;7.93;1.97;;;13.70;54.10;;;;;;5008345;28;20717;-60
2023/12/26 09:26:22;;;;;;;4.07;1.47;;;13.50;54.20;;;;;;5006421;28;20268;-62
2023/12/26 09:28:48;;;;;;;4.27;2.00;;;13.60;54.40;;;;;;5008299;28;20194;-61
2023/12/26 09:31:14;;;;;;;4.30;2.20;;;13.70;54.40;;;;;;5007474;28;20516;-61
2023/12/26 09:33:39;;;;;;;1.80;1.70;;;13.70;54.40;;;;;;5008348;28;20417;-58
2023/12/26 09:36:05;;;;;;;4.30;1.70;;;13.80;54.40;;;;;;5007991;28;20260;-59
2023/12/26 09:38:31;;;;;;;3.53;1.80;;;13.90;54.20;;;;;;5006758;28;20210;-61
2023/12/26 09:40:57;;;;;;;2.30;1.80;;;13.80;53.90;;;;;;5009027;28;20201;-60
2023/12/26 09:43:23;;;;;;;2.47;2.00;;;13.60;54.40;;;;;;5006727;28;20568;-58
2023/12/26 09:45:48;;;;;;;2.90;1.57;;;13.70;54.70;;;;;;5007692;28;20217;-63
2023/12/26 09:48:15;;;;;;;2.77;1.80;;;13.80;54.50;;;;;;5006716;28;20193;-61
2023/12/26 09:50:41;;;;;;;3.40;1.63;;;13.60;54.60;;;;;;5001412;28;20189;-60
2023/12/26 09:53:08;;;;;;;3.83;1.97;;;13.60;55.00;;;;;;5008015;28;20433;-61
2023/12/26 09:55:34;;;;;;;6.80;1.90;;;13.80;54.80;;;;;;5006595;28;20500;-61
2023/12/26 09:58:02;;;;;;;2.80;1.93;;;14.00;54.50;;;;;;5007733;28;20417;-58
2023/12/26 10:00:27;;;;;;;3.00;1.60;;;14.00;54.00;;;;;;5006513;28;20218;-58
2023/12/26 10:02:54;;;;;;;2.30;1.33;;;13.80;54.10;;;;;;5006214;28;20463;-57
2023/12/26 10:05:20;;;;;;;4.13;1.83;;;13.90;54.60;;;;;;5005635;28;20237;-58
2023/12/26 10:07:45;;;;;;;3.30;1.27;;;13.60;54.40;;;;;;5007236;28;20409;-60
2023/12/26 10:10:20;;;;;;;6.50;2.30;;;13.60;55.20;;;;;;5006551;28;20421;-60
2023/12/26 10:12:47;;;;;;;2.87;1.70;;;13.90;54.70;;;;;;5003509;28;20185;-60
2023/12/26 10:15:13;;;;;;;4.60;1.77;;;13.80;54.90;;;;;;5005838;28;20948;-60
2023/12/26 10:17:42;;;;;;;2.97;1.83;;;13.90;55.00;;;;;;5007450;28;20425;-59
2023/12/26 10:20:12;;;;;;;3.80;2.40;;;13.90;55.00;;;;;;5007063;28;20544;-59
2023/12/26 10:22:43;;;;;;;3.60;1.63;;;13.90;54.90;;;;;;5007368;28;20432;-60
2023/12/26 10:25:13;;;;;;;4.23;2.07;;;13.80;55.10;;;;;;5006333;28;20563;-63
2023/12/26 10:27:39;;;;;;;3.13;1.83;;;14.20;54.80;;;;;;5007347;28;20428;-61
2023/12/26 10:30:06;;;;;;;5.40;1.93;;;13.90;54.90;;;;;;5007162;28;20421;-61
2023/12/26 10:32:31;;;;;;;2.70;1.60;;;14.00;54.80;;;;;;5007304;28;20885;-58
2023/12/26 10:35:15;;;;;;;4.73;1.40;;;14.10;54.90;;;;;;5006844;28;20520;-61
2023/12/26 10:37:41;;;;;;;2.00;1.30;;;14.00;55.00;;;;;;5000717;28;20186;-60
2023/12/26 10:40:08;;;;;;;2.93;1.63;;;13.90;55.00;;;;;;5006802;28;20428;-62
2023/12/26 10:42:36;;;;;;;1.90;1.50;;;14.10;55.30;;;;;;5007071;28;20436;-59
2023/12/26 10:45:06;;;;;;;3.50;1.70;;;14.30;54.90;;;;;;5006515;28;20546;-61
2023/12/26 10:47:32;;;;;;;4.23;1.60;;;14.30;54.60;;;;;;5006002;28;20438;-61
2023/12/26 10:50:00;;;;;;;3.83;1.60;;;14.20;54.70;;;;;;5006785;28;20934;-59
2023/12/26 10:52:27;;;;;;;1.47;1.37;;;14.20;54.50;;;;;;5005806;28;20433;-59
2023/12/26 10:54:55;;;;;;;2.70;1.50;;;14.10;54.90;;;;;;5006068;28;20428;-61
2023/12/26 10:57:21;;;;;;;3.93;1.70;;;14.30;54.70;;;;;;5005719;28;20928;-58
2023/12/26 13:52:27;;;;;;;1.43;1.00;;;15.10;55.20;;;;;;5008613;28;20539;-62
2023/12/26 13:55:31;;;;;;;1.03;0.90;;;14.90;55.60;;;;;;5001936;28;20437;-59
2023/12/26 13:58:34;;;;;;;1.97;0.90;;;14.70;56.40;;;;;;5003526;28;20416;-60
2023/12/26 14:01:36;;;;;;;1.20;1.10;;;14.50;56.80;;;;;;5003958;28;20423;-61
2023/12/26 14:04:39;;;;;;;1.13;1.03;;;14.70;56.80;;;;;;5004553;28;20476;-61
2023/12/26 14:07:44;;;;;;;1.07;0.97;;;14.60;56.80;;;;;;5007926;28;20448;-61
2023/12/26 14:11:06;;;;;;;1.23;1.10;;;14.60;56.90;;;;;;5007054;28;20441;-60
2023/12/26 14:14:09;;;;;;;1.17;1.07;;;14.70;56.60;;;;;;5006341;28;20937;-62
2023/12/26 14:17:12;;;;;;;2.10;1.20;;;14.90;56.60;;;;;;5007045;28;20445;-61
2023/12/26 14:20:15;;;;;;;1.57;0.90;;;14.80;56.40;;;;;;5008456;28;20436;-59
2023/12/26 14:23:18;;;;;;;1.43;0.80;;;14.50;56.90;;;;;;5007744;28;20443;-58
2023/12/26 14:26:20;;;;;;;1.13;0.80;;;14.60;57.40;;;;;;5000175;28;20951;-58
2023/12/26 14:29:23;;;;;;;1.10;0.77;;;14.60;57.30;;;;;;5001810;28;20424;-61
2023/12/26 14:32:26;;;;;;;1.33;0.90;;;14.60;57.20;;;;;;5002084;28;20425;-61
2023/12/26 14:35:29;;;;;;;2.23;1.00;;;14.70;57.10;;;;;;5001197;28;20817;-61
2023/12/26 14:38:32;;;;;;;1.87;1.23;;;14.90;56.80;;;;;;5002950;28;20928;-60
2023/12/26 14:41:35;;;;;;;1.00;0.90;;;15.20;56.30;;;;;;5003894;28;20424;-61
2023/12/26 14:44:39;;;;;;;1.20;1.10;;;15.10;56.00;;;;;;5002787;28;20483;-57
2023/12/26 14:47:42;;;;;;;1.40;0.97;;;15.20;55.90;;;;;;5003738;28;20911;-60
2023/12/26 14:50:45;;;;;;;1.83;1.00;;;15.00;56.10;;;;;;5002377;28;20903;-58
2023/12/26 14:53:48;;;;;;;1.37;1.17;;;14.80;56.70;;;;;;5003760;28;20409;-61
2023/12/26 14:56:51;;;;;;;2.53;1.03;;;15.00;56.60;;;;;;5003290;28;20428;-59
2023/12/26 14:59:54;;;;;;;5.10;1.43;;;14.90;56.50;;;;;;5004123;28;20428;-61
2023/12/26 15:02:22;;;;;;;1.43;1.23;;;15.00;56.50;;;;;;5006062;28;20425;-57
2023/12/26 15:04:48;;;;;;;1.47;0.80;;;15.10;56.40;;;;;;5005844;28;20492;-61
2023/12/26 15:07:14;;;;;;;1.33;1.00;;;15.20;56.30;;;;;;5006151;28;20520;-58
2023/12/26 15:09:39;;;;;;;1.50;1.40;;;15.20;56.20;;;;;;5006906;28;20264;-59
2023/12/26 15:12:05;;;;;;;1.37;1.27;;;15.40;55.90;;;;;;5007110;28;20649;-60
2023/12/26 15:14:31;;;;;;;1.73;1.57;;;15.50;55.60;;;;;;5005061;28;20210;-60
2023/12/26 15:16:56;;;;;;;2.50;1.60;;;15.60;55.50;;;;;;5006446;28;20923;-61
2023/12/26 15:19:23;;;;;;;2.67;2.40;;;15.70;55.30;;;;;;5005676;28;20669;-59
2023/12/26 15:21:48;;;;;;;2.13;2.00;;;15.70;55.20;;;;;;5006921;28;20186;-62
2023/12/26 15:24:14;;;;;;;1.97;1.77;;;15.60;55.30;;;;;;5004631;28;20528;-58
2023/12/26 15:26:40;;;;;;;2.93;2.20;;;15.70;55.40;;;;;;5006286;28;20737;-59
2023/12/26 15:29:06;;;;;;;2.47;2.10;;;15.70;55.40;;;;;;5006817;28;20213;-59
2023/12/26 15:31:35;;;;;;;1.43;1.23;;;15.70;55.40;;;;;;5005553;28;20438;-61
2023/12/26 15:34:01;;;;;;;1.40;1.30;;;15.70;55.40;;;;;;5006272;28;20232;-58
2023/12/26 15:36:27;;;;;;;2.10;1.20;;;15.40;55.60;;;;;;5004832;28;20980;-59
2023/12/26 15:38:53;;;;;;;1.50;1.23;;;15.40;55.70;;;;;;5006729;28;20436;-59
2023/12/26 15:41:23;;;;;;;0.83;0.83;;;15.40;56.00;;;;;;5006197;28;20272;-61
2023/12/26 15:43:51;;;;;;;2.40;1.00;;;14.90;56.50;;;;;;5006237;28;20468;-60
2023/12/26 15:46:17;;;;;;;1.20;1.10;;;14.80;57.20;;;;;;5004800;28;20464;-61
2023/12/26 15:48:44;;;;;;;1.10;0.87;;;14.70;57.70;;;;;;5006530;28;20455;-60